createdAt,value
2022-09-10T00:00:00.809Z,9.57
2022-09-10T00:01:02.318Z,9.80
2022-09-10T00:02:03.952Z,9.02
2022-09-10T00:03:06.068Z,8.60
2022-09-10T00:04:11.675Z,8.68
2022-09-10T00:05:13.449Z,7.97
2022-09-10T00:06:15.985Z,8.70
2022-09-10T00:07:18.651Z,8.07
2022-09-10T00:08:21.031Z,8.43
2022-09-10T00:09:23.556Z,7.88
2022-09-10T00:10:26.373Z,8.15
2022-09-10T00:11:32.468Z,7.78
2022-09-10T00:12:35.275Z,7.82
2022-09-10T00:13:39.327Z,7.88
2022-09-10T00:14:40.847Z,8.10
2022-09-10T00:15:51.558Z,7.90
2022-09-10T00:16:53.225Z,8.25
2022-09-10T00:17:54.779Z,8.55
2022-09-10T00:19:00.145Z,8.23
2022-09-10T00:20:01.970Z,8.13
2022-09-10T00:21:07.619Z,8.25
2022-09-10T00:22:10.419Z,9.60
2022-09-10T00:23:12.107Z,9.40
2022-09-10T00:24:14.067Z,9.65
2022-09-10T00:25:15.631Z,9.77
2022-09-10T00:26:23.249Z,10.05
2022-09-10T00:27:24.742Z,10.52
2022-09-10T00:28:27.861Z,10.40
2022-09-10T00:29:29.400Z,10.38
2022-09-10T00:30:30.906Z,10.82
2022-09-10T00:31:35.141Z,10.70
2022-09-10T00:32:38.422Z,10.60
2022-09-10T00:33:40.146Z,10.00
2022-09-10T00:34:41.717Z,9.73
2022-09-10T00:35:44.333Z,9.98
2022-09-10T00:36:46.779Z,9.00
2022-09-10T00:37:48.504Z,9.80
2022-09-10T00:38:51.507Z,9.68
2022-09-10T00:39:53.188Z,9.50
2022-09-10T00:40:54.771Z,9.82
2022-09-10T00:41:57.795Z,10.32
2022-09-10T00:42:59.589Z,9.45
2022-09-10T00:44:05.110Z,10.30
2022-09-10T00:45:07.356Z,10.25
2022-09-10T00:46:08.854Z,10.38
2022-09-10T00:47:17.279Z,9.75
2022-09-10T00:48:36.681Z,9.73
2022-09-10T00:49:42.415Z,9.90
2022-09-10T00:50:47.139Z,9.93
2022-09-10T00:51:52.645Z,9.90
2022-09-10T00:53:01.077Z,10.00
2022-09-10T00:54:04.106Z,9.93
2022-09-10T00:55:06.356Z,9.93
2022-09-10T00:56:07.904Z,9.82
2022-09-10T00:57:17.318Z,9.55
2022-09-10T00:58:20.812Z,9.50
2022-09-10T00:59:26.566Z,9.90
2022-09-10T01:00:28.163Z,10.25
2022-09-10T01:01:30.949Z,10.80
2022-09-10T01:02:32.457Z,9.85
2022-09-10T01:03:34.555Z,10.20
2022-09-10T01:04:36.487Z,9.95
2022-09-10T01:05:40.330Z,9.88
2022-09-10T01:06:45.744Z,10.27
2022-09-10T01:07:48.180Z,9.63
2022-09-10T01:08:49.681Z,9.52
2022-09-10T01:09:51.757Z,10.00
2022-09-10T01:11:42.452Z,9.90
2022-09-10T01:12:46.716Z,9.90
2022-09-10T01:14:32.991Z,10.18
2022-09-10T01:16:05.112Z,10.15
2022-09-10T01:17:25.852Z,10.55
2022-09-10T01:18:49.622Z,10.88
2022-09-10T01:20:08.991Z,10.25
2022-09-10T01:21:19.337Z,10.90
2022-09-10T01:22:42.509Z,11.27
2022-09-10T01:24:02.319Z,10.60
2022-09-10T01:25:10.614Z,9.60
2022-09-10T01:26:30.107Z,9.85
2022-09-10T01:27:40.239Z,9.45
2022-09-10T01:28:51.279Z,9.93
2022-09-10T01:30:03.667Z,9.43
2022-09-10T01:31:14.897Z,9.73
2022-09-10T01:32:29.714Z,8.68
2022-09-10T01:33:43.184Z,8.77
2022-09-10T01:35:03.897Z,9.75
2022-09-10T01:36:12.674Z,9.50
2022-09-10T01:37:21.738Z,9.25
2022-09-10T01:38:27.764Z,9.15
2022-09-10T01:39:29.581Z,9.85
2022-09-10T01:40:33.299Z,8.80
2022-09-10T01:41:35.000Z,9.32
2022-09-10T01:42:38.477Z,9.25
2022-09-10T01:43:41.486Z,8.98
2022-09-10T01:44:44.691Z,9.45
2022-09-10T01:45:59.806Z,9.05
2022-09-10T01:47:14.745Z,9.50
2022-09-10T01:48:35.078Z,9.23
2022-09-10T01:49:58.569Z,9.95
2022-09-10T01:51:12.668Z,10.00
2022-09-10T01:52:36.082Z,9.82
2022-09-10T01:53:47.247Z,9.82
2022-09-10T01:55:13.206Z,10.35
2022-09-10T01:56:35.656Z,9.40
2022-09-10T01:57:53.022Z,9.60
2022-09-10T01:59:03.936Z,9.55
2022-09-10T02:00:14.608Z,10.07
2022-09-10T02:01:29.361Z,10.20
2022-09-10T02:02:37.198Z,10.27
2022-09-10T02:03:41.824Z,9.55
2022-09-10T02:04:46.107Z,10.32
2022-09-10T02:05:51.386Z,9.98
2022-09-10T02:06:53.148Z,10.27
2022-09-10T02:08:02.004Z,10.73
2022-09-10T02:09:05.487Z,10.20
2022-09-10T02:10:08.918Z,10.40
2022-09-10T02:11:14.309Z,10.57
2022-09-10T02:12:21.045Z,10.02
2022-09-10T02:13:23.952Z,10.80
2022-09-10T02:14:26.433Z,10.77
2022-09-10T02:15:29.506Z,10.65
2022-09-10T02:16:37.745Z,10.30
2022-09-10T02:17:40.935Z,10.85
2022-09-10T02:18:43.582Z,10.45
2022-09-10T02:19:46.946Z,10.68
2022-09-10T02:20:50.861Z,10.73
2022-09-10T02:21:56.154Z,11.25
2022-09-10T02:22:59.834Z,10.60
2022-09-10T02:24:05.988Z,11.07
2022-09-10T02:25:09.895Z,10.10
2022-09-10T02:26:14.483Z,11.18
2022-09-10T02:27:16.189Z,10.80
2022-09-10T02:28:17.799Z,11.23
2022-09-10T02:29:19.495Z,10.77
2022-09-10T02:30:21.030Z,11.15
2022-09-10T02:31:22.637Z,10.90
2022-09-10T02:32:24.438Z,10.85
2022-09-10T02:33:26.038Z,11.68
2022-09-10T02:34:27.611Z,11.30
2022-09-10T02:35:31.152Z,10.05
2022-09-10T02:36:33.157Z,10.30
2022-09-10T02:37:35.571Z,10.23
2022-09-10T02:38:37.142Z,10.20
2022-09-10T02:39:40.132Z,8.75
2022-09-10T02:40:43.202Z,10.38
2022-09-10T02:41:45.543Z,10.20
2022-09-10T02:42:47.415Z,10.80
2022-09-10T02:43:49.670Z,10.27
2022-09-10T02:44:51.210Z,10.07
2022-09-10T02:45:57.258Z,10.30
2022-09-10T02:46:58.828Z,10.38
2022-09-10T02:48:00.480Z,10.57
2022-09-10T02:49:01.997Z,10.50
2022-09-10T02:50:03.712Z,10.40
2022-09-10T02:51:05.760Z,11.38
2022-09-10T02:52:07.338Z,11.75
2022-09-10T02:53:08.938Z,11.88
2022-09-10T02:54:10.590Z,12.02
2022-09-10T02:55:13.307Z,11.02
2022-09-10T02:56:15.411Z,11.35
2022-09-10T02:57:16.912Z,11.45
2022-09-10T02:58:18.499Z,11.68
2022-09-10T02:59:20.022Z,11.05
2022-09-10T03:00:22.271Z,11.57
2022-09-10T03:01:24.033Z,11.77
2022-09-10T03:02:25.912Z,11.55
2022-09-10T03:03:28.862Z,11.23
2022-09-10T03:04:30.366Z,11.10
2022-09-10T03:05:32.780Z,10.15
2022-09-10T03:06:34.334Z,10.52
2022-09-10T03:07:35.850Z,10.38
2022-09-10T03:08:37.570Z,10.68
2022-09-10T03:09:41.078Z,11.65
2022-09-10T03:10:42.605Z,11.05
2022-09-10T03:11:44.139Z,10.68
2022-09-10T03:12:45.808Z,10.35
2022-09-10T03:13:48.004Z,11.50
2022-09-10T03:14:50.410Z,11.85
2022-09-10T03:15:52.872Z,10.50
2022-09-10T03:16:55.047Z,10.05
2022-09-10T03:17:56.587Z,10.35
2022-09-10T03:18:58.110Z,11.05
2022-09-10T03:19:59.943Z,11.05
2022-09-10T03:21:18.980Z,10.45
2022-09-10T03:22:20.580Z,9.90
2022-09-10T03:23:22.111Z,10.60
2022-09-10T03:24:25.276Z,10.80
2022-09-10T03:25:26.866Z,10.35
2022-09-10T03:26:28.473Z,10.60
2022-09-10T03:27:30.324Z,10.40
2022-09-10T03:28:33.168Z,10.48
2022-09-10T03:29:34.763Z,11.23
2022-09-10T03:30:37.726Z,11.10
2022-09-10T03:31:39.732Z,10.68
2022-09-10T03:32:41.476Z,10.38
2022-09-10T03:33:43.043Z,11.27
2022-09-10T03:34:44.556Z,10.73
2022-09-10T03:35:46.056Z,10.77
2022-09-10T03:36:47.634Z,10.65
2022-09-10T03:37:49.416Z,10.43
2022-09-10T03:38:51.015Z,10.30
2022-09-10T03:39:52.658Z,10.82
2022-09-10T03:40:54.919Z,10.68
2022-09-10T03:41:56.433Z,10.55
2022-09-10T03:42:57.943Z,10.70
2022-09-10T03:43:59.460Z,10.80
2022-09-10T03:45:01.015Z,11.48
2022-09-10T03:46:03.014Z,10.88
2022-09-10T03:47:05.036Z,11.10
2022-09-10T03:48:06.623Z,10.88
2022-09-10T03:49:08.484Z,11.43
2022-09-10T03:50:10.014Z,11.68
2022-09-10T03:51:11.527Z,10.98
2022-09-10T03:52:13.477Z,11.80
2022-09-10T03:53:16.621Z,12.20
2022-09-10T03:54:18.131Z,11.10
2022-09-10T03:55:19.647Z,13.27
2022-09-10T03:56:21.309Z,12.20
2022-09-10T03:57:23.283Z,11.70
2022-09-10T03:58:24.838Z,12.10
2022-09-10T03:59:26.372Z,11.70
2022-09-10T04:00:27.992Z,11.38
2022-09-10T04:01:30.079Z,10.95
2022-09-10T04:02:31.770Z,11.77
2022-09-10T04:03:33.384Z,12.38
2022-09-10T04:04:37.330Z,11.55
2022-09-10T04:05:40.637Z,11.48
2022-09-10T04:06:42.624Z,11.65
2022-09-10T04:07:44.148Z,11.60
2022-09-10T04:08:49.693Z,11.70
2022-09-10T04:09:51.899Z,11.30
2022-09-10T04:10:53.426Z,11.30
2022-09-10T04:11:55.123Z,11.43
2022-09-10T04:12:56.724Z,11.32
2022-09-10T04:13:58.288Z,11.00
2022-09-10T04:15:04.480Z,11.75
2022-09-10T04:16:06.223Z,11.57
2022-09-10T04:17:07.809Z,11.57
2022-09-10T04:18:11.613Z,11.48
2022-09-10T04:19:13.158Z,11.98
2022-09-10T04:20:14.909Z,12.00
2022-09-10T04:21:16.435Z,12.80
2022-09-10T04:22:17.996Z,13.00
2022-09-10T04:23:20.043Z,12.30
2022-09-10T04:24:21.591Z,13.48
2022-09-10T04:25:24.099Z,12.93
2022-09-10T04:26:25.622Z,14.05
2022-09-10T04:27:28.631Z,13.65
2022-09-10T04:28:31.375Z,13.20
2022-09-10T04:29:32.968Z,14.10
2022-09-10T04:30:34.507Z,13.48
2022-09-10T04:31:36.088Z,13.20
2022-09-10T04:32:37.806Z,13.48
2022-09-10T04:33:39.491Z,12.88
2022-09-10T04:34:41.133Z,12.65
2022-09-10T04:35:43.494Z,13.10
2022-09-10T04:36:44.998Z,12.35
2022-09-10T04:37:46.885Z,13.18
2022-09-10T04:38:48.431Z,12.52
2022-09-10T04:39:50.091Z,12.77
2022-09-10T04:40:51.797Z,12.45
2022-09-10T04:41:53.389Z,12.80
2022-09-10T04:42:54.930Z,12.18
2022-09-10T04:43:56.453Z,11.40
2022-09-10T04:44:58.375Z,11.32
2022-09-10T04:45:59.968Z,11.27
2022-09-10T04:47:01.616Z,11.35
2022-09-10T04:48:06.846Z,12.27
2022-09-10T04:49:08.722Z,11.55
2022-09-10T04:50:10.614Z,12.23
2022-09-10T04:51:17.419Z,11.90
2022-09-10T04:52:22.720Z,11.18
2022-09-10T04:53:25.155Z,11.35
2022-09-10T04:54:26.660Z,11.23
2022-09-10T04:55:31.210Z,10.88
2022-09-10T04:56:32.900Z,11.95
2022-09-10T04:57:34.479Z,11.18
2022-09-10T04:58:39.110Z,11.02
2022-09-10T04:59:41.153Z,11.77
2022-09-10T05:00:42.735Z,11.63
2022-09-10T05:01:44.308Z,10.85
2022-09-10T05:02:46.672Z,11.07
2022-09-10T05:03:48.177Z,10.65
2022-09-10T05:04:50.906Z,10.75
2022-09-10T05:05:52.488Z,11.27
2022-09-10T05:06:54.037Z,10.32
2022-09-10T05:07:55.707Z,10.25
2022-09-10T05:08:57.341Z,11.18
2022-09-10T05:09:58.939Z,10.40
2022-09-10T05:11:02.797Z,10.55
2022-09-10T05:12:04.661Z,11.40
2022-09-10T05:13:06.424Z,11.10
2022-09-10T05:14:07.901Z,10.73
2022-09-10T05:15:10.029Z,11.15
2022-09-10T05:16:12.477Z,11.63
2022-09-10T05:17:14.059Z,10.40
2022-09-10T05:18:16.686Z,11.10
2022-09-10T05:19:18.287Z,10.65
2022-09-10T05:20:20.363Z,11.93
2022-09-10T05:21:22.677Z,10.52
2022-09-10T05:22:24.257Z,11.75
2022-09-10T05:23:26.295Z,11.80
2022-09-10T05:24:27.981Z,11.45
2022-09-10T05:25:29.542Z,11.15
2022-09-10T05:26:31.112Z,11.60
2022-09-10T05:27:32.692Z,11.68
2022-09-10T05:28:34.258Z,11.57
2022-09-10T05:29:35.805Z,10.45
2022-09-10T05:30:37.526Z,11.65
2022-09-10T05:31:39.080Z,11.27
2022-09-10T05:32:41.091Z,11.30
2022-09-10T05:33:43.173Z,11.25
2022-09-10T05:34:48.618Z,11.50
2022-09-10T05:35:53.207Z,11.00
2022-09-10T05:36:55.816Z,11.65
2022-09-10T05:37:57.764Z,11.55
2022-09-10T05:39:00.688Z,11.63
2022-09-10T05:40:08.108Z,10.60
2022-09-10T05:41:10.738Z,11.80
2022-09-10T05:42:12.708Z,11.73
2022-09-10T05:43:14.203Z,11.15
2022-09-10T05:44:17.529Z,11.68
2022-09-10T05:45:20.350Z,11.32
2022-09-10T05:46:22.624Z,11.05
2022-09-10T05:47:24.187Z,10.75
2022-09-10T05:48:25.730Z,11.48
2022-09-10T05:49:27.669Z,11.20
2022-09-10T05:50:30.366Z,10.93
2022-09-10T05:51:31.943Z,11.45
2022-09-10T05:52:33.709Z,11.48
2022-09-10T05:53:35.350Z,10.93
2022-09-10T05:54:36.947Z,10.85
2022-09-10T05:55:38.551Z,10.93
2022-09-10T05:56:40.222Z,10.48
2022-09-10T05:57:41.760Z,11.50
2022-09-10T05:58:45.112Z,11.10
2022-09-10T05:59:46.870Z,11.20
2022-09-10T06:00:51.872Z,12.02
2022-09-10T06:01:53.643Z,11.90
2022-09-10T06:02:57.261Z,10.43
2022-09-10T06:03:59.646Z,11.82
2022-09-10T06:05:01.230Z,11.18
2022-09-10T06:06:02.743Z,12.13
2022-09-10T06:07:04.712Z,12.38
2022-09-10T06:08:09.021Z,12.32
2022-09-10T06:09:10.734Z,11.82
2022-09-10T06:10:12.290Z,13.18
2022-09-10T06:11:13.913Z,12.70
2022-09-10T06:12:17.162Z,12.82
2022-09-10T06:13:20.697Z,12.57
2022-09-10T06:14:22.485Z,12.48
2022-09-10T06:15:25.503Z,12.77
2022-09-10T06:16:27.671Z,12.32
2022-09-10T06:17:29.323Z,11.82
2022-09-10T06:18:32.022Z,13.07
2022-09-10T06:19:33.540Z,12.48
2022-09-10T06:20:35.059Z,12.50
2022-09-10T06:21:36.655Z,12.70
2022-09-10T06:22:38.770Z,12.18
2022-09-10T06:23:40.319Z,12.77
2022-09-10T06:24:42.217Z,12.30
2022-09-10T06:25:44.629Z,11.80
2022-09-10T06:26:50.127Z,12.45
2022-09-10T06:27:51.765Z,11.70
2022-09-10T06:28:55.144Z,12.05
2022-09-10T06:29:56.818Z,12.82
2022-09-10T06:30:58.565Z,12.20
2022-09-10T06:32:00.523Z,11.07
2022-09-10T06:33:02.198Z,12.48
2022-09-10T06:34:03.940Z,11.07
2022-09-10T06:35:06.409Z,11.05
2022-09-10T06:36:11.141Z,11.15
2022-09-10T06:37:13.298Z,10.93
2022-09-10T06:38:14.840Z,10.65
2022-09-10T06:39:17.062Z,10.10
2022-09-10T06:40:18.751Z,10.82
2022-09-10T06:41:20.379Z,10.77
2022-09-10T06:42:23.848Z,11.07
2022-09-10T06:43:28.711Z,10.80
2022-09-10T06:44:30.295Z,10.63
2022-09-10T06:45:32.439Z,10.55
2022-09-10T06:49:17.052Z,10.18
2022-09-10T06:50:18.573Z,9.85
2022-09-10T06:51:20.180Z,9.48
2022-09-10T06:52:21.743Z,9.45
2022-09-10T06:53:25.082Z,9.75
2022-09-10T06:54:26.666Z,10.20
2022-09-10T06:55:28.214Z,9.60
2022-09-10T06:56:30.218Z,9.32
2022-09-10T06:57:31.791Z,9.70
2022-09-10T06:58:36.286Z,10.10
2022-09-10T06:59:38.627Z,10.30
2022-09-10T07:00:40.166Z,9.57
2022-09-10T07:01:41.794Z,10.55
2022-09-10T07:02:43.392Z,10.80
2022-09-10T07:03:45.806Z,10.93
2022-09-10T07:04:47.351Z,10.20
2022-09-10T07:05:49.315Z,10.45
2022-09-10T07:06:51.513Z,10.85
2022-09-10T07:07:53.041Z,11.18
2022-09-10T07:08:58.237Z,11.43
2022-09-10T07:09:59.840Z,11.93
2022-09-10T07:11:05.257Z,12.95
2022-09-10T07:12:06.936Z,11.82
2022-09-10T07:13:08.524Z,11.57
2022-09-10T07:14:12.392Z,11.15
2022-09-10T07:15:13.967Z,11.82
2022-09-10T07:16:18.695Z,11.25
2022-09-10T07:17:21.103Z,11.10
2022-09-10T07:18:22.646Z,11.40
2022-09-10T07:19:24.244Z,10.52
2022-09-10T07:20:27.169Z,10.50
2022-09-10T07:21:29.093Z,10.70
2022-09-10T07:22:32.285Z,10.82
2022-09-10T07:23:33.862Z,11.13
2022-09-10T07:24:35.517Z,10.40
2022-09-10T07:25:37.341Z,11.07
2022-09-10T07:26:39.077Z,10.43
2022-09-10T07:27:40.591Z,9.93
2022-09-10T07:28:42.932Z,10.65
2022-09-10T07:29:44.449Z,10.00
2022-09-10T07:30:47.446Z,10.35
2022-09-10T07:31:49.100Z,10.10
2022-09-10T07:32:50.667Z,9.70
2022-09-10T07:33:52.867Z,9.10
2022-09-10T07:34:55.983Z,9.05
2022-09-10T07:36:00.854Z,8.85
2022-09-10T07:37:02.367Z,9.05
2022-09-10T07:38:11.684Z,9.02
2022-09-10T07:39:13.201Z,9.43
2022-09-10T07:40:15.420Z,9.30
2022-09-10T07:41:17.128Z,9.38
2022-09-10T07:42:18.725Z,8.98
2022-09-10T07:43:20.247Z,9.30
2022-09-10T07:44:21.783Z,8.55
2022-09-10T07:45:23.324Z,9.40
2022-09-10T07:46:25.807Z,8.90
2022-09-10T07:47:27.437Z,9.18
2022-09-10T07:48:29.104Z,8.40
2022-09-10T07:49:31.573Z,8.07
2022-09-10T07:50:33.082Z,7.82
2022-09-10T07:51:34.919Z,9.23
2022-09-10T07:52:36.935Z,9.35
2022-09-10T07:53:40.475Z,8.70
2022-09-10T07:54:49.015Z,9.27
2022-09-10T07:55:59.107Z,8.77
2022-09-10T07:57:00.623Z,9.27
2022-09-10T07:58:02.205Z,8.23
2022-09-10T07:59:03.861Z,8.45
2022-09-10T08:00:12.005Z,7.85
2022-09-10T08:01:13.722Z,7.40
2022-09-10T08:02:15.566Z,7.47
2022-09-10T08:03:18.335Z,7.80
2022-09-10T08:04:19.848Z,8.07
2022-09-10T08:05:21.541Z,7.47
2022-09-10T08:06:23.960Z,7.68
2022-09-10T08:07:25.514Z,8.75
2022-09-10T08:08:35.405Z,7.60
2022-09-10T08:09:37.487Z,7.35
2022-09-10T08:10:39.045Z,7.43
2022-09-10T08:11:41.305Z,7.50
2022-09-10T08:12:43.597Z,6.88
2022-09-10T08:13:47.367Z,7.60
2022-09-10T08:14:48.948Z,7.28
2022-09-10T08:15:51.671Z,9.13
2022-09-10T08:16:53.579Z,7.15
2022-09-10T08:17:55.679Z,7.55
2022-09-10T08:18:57.230Z,7.20
2022-09-10T08:19:59.322Z,7.18
2022-09-10T08:21:00.967Z,7.47
2022-09-10T08:22:03.587Z,7.55
2022-09-10T08:23:05.605Z,7.30
2022-09-10T08:24:08.661Z,7.70
2022-09-10T08:25:10.261Z,7.75
2022-09-10T08:26:11.768Z,7.80
2022-09-10T08:27:13.365Z,7.50
2022-09-10T08:28:15.700Z,7.28
2022-09-10T08:29:17.350Z,7.50
2022-09-10T08:30:18.928Z,7.15
2022-09-10T08:31:21.447Z,7.35
2022-09-10T08:32:23.682Z,7.45
2022-09-10T08:33:25.272Z,7.60
2022-09-10T08:34:27.305Z,7.88
2022-09-10T08:35:28.867Z,7.57
2022-09-10T08:36:30.379Z,7.78
2022-09-10T08:37:33.422Z,7.00
2022-09-10T08:38:37.347Z,7.28
2022-09-10T08:39:39.123Z,7.40
2022-09-10T08:40:44.634Z,7.00
2022-09-10T08:42:01.146Z,7.63
2022-09-10T08:43:02.811Z,7.05
2022-09-10T08:44:10.329Z,6.78
2022-09-10T08:45:23.931Z,7.03
2022-09-10T08:46:29.020Z,6.50
2022-09-10T08:47:49.286Z,6.65
2022-09-10T08:49:07.111Z,6.22
2022-09-10T08:50:32.746Z,6.57
2022-09-10T08:51:45.745Z,6.32
2022-09-10T08:52:52.032Z,6.65
2022-09-10T08:54:19.650Z,6.78
2022-09-10T08:55:21.099Z,7.07
2022-09-10T08:56:24.380Z,6.35
2022-09-10T08:57:33.395Z,6.68
2022-09-10T08:58:47.243Z,7.03
2022-09-10T08:59:52.318Z,6.50
2022-09-10T09:00:57.865Z,6.30
2022-09-10T09:02:22.434Z,6.72
2022-09-10T09:03:47.522Z,7.25
2022-09-10T09:05:00.816Z,6.82
2022-09-10T09:06:12.995Z,6.90
2022-09-10T09:07:19.946Z,6.72
2022-09-10T09:08:27.169Z,7.28
2022-09-10T09:09:28.701Z,7.25
2022-09-10T09:10:46.689Z,7.35
2022-09-10T09:12:15.692Z,6.47
2022-09-10T09:13:37.311Z,6.53
2022-09-10T09:14:52.900Z,6.93
2022-09-10T09:16:06.739Z,7.30
2022-09-10T09:17:23.277Z,6.63
2022-09-10T09:18:24.740Z,7.03
2022-09-10T09:19:50.871Z,6.70
2022-09-10T09:20:57.492Z,6.25
2022-09-10T09:22:19.824Z,6.78
2022-09-10T09:23:33.355Z,6.25
2022-09-10T09:25:03.214Z,6.10
2022-09-10T09:26:11.775Z,6.57
2022-09-10T09:27:20.102Z,6.35
2022-09-10T09:28:47.202Z,6.50
2022-09-10T09:30:07.998Z,7.32
2022-09-10T09:31:22.619Z,7.07
2022-09-10T09:32:25.339Z,7.00
2022-09-10T09:33:30.482Z,6.70
2022-09-10T09:34:54.369Z,6.78
2022-09-10T09:36:03.098Z,6.18
2022-09-10T09:37:10.888Z,6.78
2022-09-10T09:38:18.248Z,7.10
2022-09-10T09:39:37.999Z,6.55
2022-09-10T09:40:49.579Z,7.07
2022-09-10T09:42:18.247Z,6.22
2022-09-10T09:43:34.460Z,6.85
2022-09-10T09:44:41.234Z,5.90
2022-09-10T09:45:47.661Z,6.53
2022-09-10T09:46:49.815Z,7.18
2022-09-10T09:47:54.444Z,6.60
2022-09-10T09:48:59.188Z,7.13
2022-09-10T09:50:00.895Z,6.15
2022-09-10T09:51:04.445Z,6.32
2022-09-10T09:52:22.831Z,6.45
2022-09-10T09:53:29.335Z,5.82
2022-09-10T09:55:10.160Z,5.45
2022-09-10T09:56:00.007Z,5.97
2022-09-10T09:57:02.952Z,5.57
2022-09-10T09:58:24.095Z,5.85
2022-09-10T09:59:30.009Z,5.22
2022-09-10T10:00:36.430Z,5.68
2022-09-10T10:01:42.781Z,6.07
2022-09-10T10:02:44.512Z,5.80
2022-09-10T10:03:58.615Z,6.47
2022-09-10T10:05:00.101Z,5.95
2022-09-10T10:06:03.742Z,6.22
2022-09-10T10:07:05.349Z,6.20
2022-09-10T10:08:28.224Z,5.07
2022-09-10T10:09:34.781Z,6.07
2022-09-10T10:10:36.349Z,5.68
2022-09-10T10:11:45.792Z,6.00
2022-09-10T10:12:51.319Z,5.68
2022-09-10T10:13:53.036Z,6.30
2022-09-10T10:14:54.618Z,6.10
2022-09-10T10:15:56.162Z,5.57
2022-09-10T10:17:01.047Z,6.13
2022-09-10T10:18:22.653Z,5.65
2022-09-10T10:19:40.232Z,5.60
2022-09-10T10:20:41.769Z,5.60
2022-09-10T10:21:44.931Z,5.75
2022-09-10T10:22:48.681Z,6.38
2022-09-10T10:23:50.249Z,5.43
2022-09-10T10:24:54.004Z,5.50
2022-09-10T10:25:55.595Z,4.88
2022-09-10T10:26:57.394Z,4.95
2022-09-10T10:27:59.011Z,5.53
2022-09-10T10:29:20.338Z,4.93
2022-09-10T10:30:24.211Z,4.82
2022-09-10T10:31:49.476Z,4.22
2022-09-10T10:32:58.318Z,4.72
2022-09-10T10:34:07.986Z,4.90
2022-09-10T10:35:46.590Z,5.18
2022-09-10T10:37:07.478Z,4.80
2022-09-10T10:38:30.748Z,5.35
2022-09-10T10:39:57.022Z,4.65
2022-09-10T10:41:16.425Z,5.07
2022-09-10T10:42:44.615Z,4.80
2022-09-10T10:44:01.538Z,5.13
2022-09-10T10:45:08.865Z,4.68
2022-09-10T10:46:34.413Z,4.65
2022-09-10T10:47:41.712Z,4.93
2022-09-10T10:49:11.945Z,4.18
2022-09-10T10:50:16.259Z,4.32
2022-09-10T10:51:46.340Z,3.95
2022-09-10T10:53:14.553Z,4.88
2022-09-10T10:54:51.802Z,5.13
2022-09-10T10:56:20.577Z,4.97
2022-09-10T10:57:47.902Z,4.82
2022-09-10T10:59:11.488Z,4.72
2022-09-10T11:00:15.729Z,4.85
2022-09-10T11:01:23.829Z,4.38
2022-09-10T11:03:01.876Z,4.70
2022-09-10T11:04:29.760Z,4.80
2022-09-10T11:05:42.510Z,4.82
2022-09-10T11:06:49.813Z,6.43
2022-09-10T11:07:52.779Z,5.32
2022-09-10T11:09:04.939Z,7.15
2022-09-10T11:10:16.363Z,5.28
2022-09-10T11:11:23.292Z,7.20
2022-09-10T11:12:38.023Z,4.43
2022-09-10T11:13:50.550Z,5.65
2022-09-10T11:15:02.206Z,4.97
2022-09-10T11:16:09.690Z,4.85
2022-09-10T11:17:20.340Z,4.88
2022-09-10T11:18:34.256Z,5.00
2022-09-10T11:19:56.625Z,8.52
2022-09-10T11:21:29.923Z,4.43
2022-09-10T11:22:39.975Z,4.30
2022-09-10T11:23:46.948Z,11.57
2022-09-10T11:24:58.086Z,5.50
2022-09-10T11:26:21.435Z,5.15
2022-09-10T11:27:30.760Z,4.80
2022-09-10T11:28:46.924Z,5.07
2022-09-10T11:30:00.348Z,4.88
2022-09-10T11:31:15.659Z,5.85
2022-09-10T11:32:17.178Z,5.45
2022-09-10T11:33:23.267Z,5.30
2022-09-10T11:34:47.553Z,4.40
2022-09-10T11:36:10.956Z,5.25
2022-09-10T11:37:35.424Z,4.10
2022-09-10T11:38:59.721Z,4.05
2022-09-10T11:40:10.913Z,5.40
2022-09-10T11:41:22.962Z,4.90
2022-09-10T11:42:39.721Z,3.97
2022-09-10T11:44:01.814Z,4.75
2022-09-10T11:45:36.299Z,3.58
2022-09-10T11:46:47.599Z,6.18
2022-09-10T11:47:56.488Z,5.07
2022-09-10T11:49:06.807Z,4.22
2022-09-10T11:50:34.835Z,5.72
2022-09-10T11:51:38.963Z,6.25
2022-09-10T11:52:40.556Z,7.55
2022-09-10T11:53:42.180Z,9.95
2022-09-10T11:54:46.736Z,14.80
2022-09-10T11:56:05.883Z,15.52
2022-09-10T11:57:26.595Z,7.93
2022-09-10T11:59:02.582Z,6.20
2022-09-10T12:00:18.528Z,4.38
2022-09-10T12:01:22.828Z,5.03
2022-09-10T12:02:27.531Z,4.70
2022-09-10T12:04:03.911Z,4.43
2022-09-10T12:05:23.635Z,4.20
2022-09-10T12:06:30.709Z,5.18
2022-09-10T12:07:59.990Z,4.45
2022-09-10T12:09:01.521Z,4.60
2022-09-10T12:10:24.257Z,4.93
2022-09-10T12:11:40.712Z,4.63
2022-09-10T12:12:45.049Z,4.45
2022-09-10T12:13:49.477Z,6.10
2022-09-10T12:14:51.072Z,4.43
2022-09-10T12:16:00.217Z,4.45
2022-09-10T12:17:09.654Z,4.18
2022-09-10T12:18:18.766Z,4.28
2022-09-10T12:19:37.358Z,4.47
2022-09-10T12:21:03.662Z,4.28
2022-09-10T12:22:15.918Z,4.60
2022-09-10T12:23:25.631Z,4.03
2022-09-10T12:24:37.751Z,4.20
2022-09-10T12:25:39.345Z,4.57
2022-09-10T12:26:43.757Z,4.10
2022-09-10T12:27:53.552Z,4.22
2022-09-10T12:28:59.819Z,4.10
2022-09-10T12:30:42.505Z,4.40
2022-09-10T12:32:13.559Z,4.18
2022-09-10T12:33:18.488Z,4.72
2022-09-10T12:34:20.071Z,4.57
2022-09-10T12:35:48.918Z,4.68
2022-09-10T12:36:50.601Z,4.22
2022-09-10T12:38:30.540Z,4.05
2022-09-10T12:39:34.371Z,4.32
2022-09-10T12:40:35.966Z,4.15
2022-09-10T12:41:37.439Z,4.00
2022-09-10T12:42:39.031Z,4.38
2022-09-10T12:43:40.710Z,4.07
2022-09-10T12:44:42.330Z,3.55
2022-09-10T12:46:03.283Z,3.38
2022-09-10T12:47:14.075Z,3.28
2022-09-10T12:48:17.307Z,2.05
2022-09-10T12:49:19.008Z,2.45
2022-09-10T12:50:28.779Z,3.60
2022-09-10T12:51:39.364Z,2.75
2022-09-10T12:52:52.893Z,2.20
2022-09-10T12:54:26.537Z,1.85
2022-09-10T12:55:54.649Z,1.70
2022-09-10T12:57:12.860Z,1.70
2022-09-10T12:58:26.601Z,1.80
2022-09-10T12:59:58.891Z,1.90
2022-09-10T13:01:25.036Z,2.38
2022-09-10T13:02:37.320Z,2.42
2022-09-10T13:03:50.073Z,2.47
2022-09-10T13:05:02.018Z,2.15
2022-09-10T13:06:07.145Z,3.05
2022-09-10T13:07:37.298Z,1.95
2022-09-10T13:08:45.015Z,1.73
2022-09-10T13:09:56.508Z,2.30
2022-09-10T13:11:02.893Z,2.28
2022-09-10T13:12:18.211Z,2.50
2022-09-10T13:13:42.750Z,2.60
2022-09-10T13:14:51.150Z,2.35
2022-09-10T13:15:53.499Z,2.00
2022-09-10T13:16:55.514Z,2.00
2022-09-10T13:17:57.208Z,1.90
2022-09-10T13:19:27.992Z,2.00
2022-09-10T13:20:32.646Z,1.80
2022-09-10T13:21:42.935Z,1.60
2022-09-10T13:23:04.195Z,2.13
2022-09-10T13:24:34.283Z,1.92
2022-09-10T13:25:45.709Z,2.28
2022-09-10T13:26:50.438Z,1.60
2022-09-10T13:27:52.064Z,2.00
2022-09-10T13:29:00.788Z,2.00
2022-09-10T13:30:16.341Z,1.92
2022-09-10T13:31:22.511Z,1.83
2022-09-10T13:32:39.541Z,1.80
2022-09-10T13:33:50.245Z,2.10
2022-09-10T13:35:19.587Z,1.83
2022-09-10T13:36:39.611Z,2.00
2022-09-10T13:38:02.872Z,2.20
2022-09-10T13:39:31.972Z,2.33
2022-09-10T13:40:49.605Z,1.90
2022-09-10T13:42:12.835Z,1.77
2022-09-10T13:43:42.057Z,2.00
2022-09-10T13:45:02.340Z,2.00
2022-09-10T13:46:10.238Z,2.05
2022-09-10T13:47:17.621Z,1.77
2022-09-10T13:48:25.954Z,1.90
2022-09-10T13:49:35.935Z,1.90
2022-09-10T13:50:50.075Z,2.17
2022-09-10T13:51:54.257Z,2.38
2022-09-10T13:53:00.135Z,1.98
2022-09-10T13:54:24.562Z,2.13
2022-09-10T13:55:30.339Z,2.75
2022-09-10T13:56:33.394Z,2.47
2022-09-10T13:57:43.267Z,2.55
2022-09-10T13:58:52.365Z,1.90
2022-09-10T14:00:07.322Z,2.55
2022-09-10T14:01:09.041Z,1.88
2022-09-10T14:02:10.631Z,1.80
2022-09-10T14:03:21.101Z,1.88
2022-09-10T14:04:27.079Z,2.13
2022-09-10T14:05:36.435Z,1.55
2022-09-10T14:06:38.304Z,1.83
2022-09-10T14:07:40.823Z,1.60
2022-09-10T14:08:58.514Z,1.63
2022-09-10T14:10:06.162Z,1.52
2022-09-10T14:11:13.690Z,1.90
2022-09-10T14:12:17.592Z,1.70
2022-09-10T14:13:24.311Z,1.80
2022-09-10T14:14:30.470Z,1.80
2022-09-10T14:15:39.087Z,1.98
2022-09-10T14:16:44.443Z,2.00
2022-09-10T14:17:57.384Z,2.03
2022-09-10T14:19:03.035Z,1.50
2022-09-10T14:20:20.705Z,1.95
2022-09-10T14:21:27.093Z,2.15
2022-09-10T14:22:31.192Z,1.83
2022-09-10T14:23:33.117Z,2.40
2022-09-10T14:24:37.660Z,1.85
2022-09-10T14:25:41.300Z,1.80
2022-09-10T14:27:07.139Z,1.98
2022-09-10T14:28:27.199Z,2.33
2022-09-10T14:29:28.882Z,1.85
2022-09-10T14:30:30.524Z,2.10
2022-09-10T14:31:37.426Z,2.08
2022-09-10T14:32:39.989Z,2.47
2022-09-10T14:33:41.847Z,2.03
2022-09-10T14:34:43.554Z,2.33
2022-09-10T14:35:47.494Z,1.90
2022-09-10T14:36:49.267Z,2.47
2022-09-10T14:37:51.715Z,2.10
2022-09-10T14:39:04.344Z,2.20
2022-09-10T14:40:21.865Z,2.67
2022-09-10T14:41:27.200Z,1.70
2022-09-10T14:42:34.906Z,2.15